Flight Track Log - Related Links

Times and Time Zones

All times are in EDT time to prevent confusion due to time zone crossing. See the EJA122 flight status page for this flight to view local times or setup timezone preferences in your user account.

Time Position Orientation Groundspeed Altitude Reporting Facility
EDT Latitude Longitude Course Direction KTS MPH feet Rate Location/Type
Thu 07:13:53 PM 34.1747 -118.4944 340° North 165 190 2,000  Level Los Angeles Center
Thu 07:14:55 PM 34.1381 -118.5303 219° Southwest 175 201 3,800 1,920 Climbing Los Angeles Center
Thu 07:15:58 PM 34.1467 -118.5942 279° West 190 219 6,000 2,112 Climbing Los Angeles Center
Thu 07:17:00 PM 34.2061 -118.6389 328° Northwest 239 275 8,200 1,597 Climbing Los Angeles Center
Thu 07:18:02 PM 34.2800 -118.6683 342° North 277 319 9,300 1,113 Climbing Los Angeles Center
Thu 07:19:00 PM 34.5716 -118.7411 340° North  Level FlightAware Approximate
Thu 07:19:04 PM 34.3717 -118.7011 344° North 338 389 10,500  Level Los Angeles Center
Thu 07:20:06 PM 34.4675 -118.7358 343° North 358 412 12,100 1,597 Climbing Los Angeles Center
Thu 07:21:08 PM 34.5664 -118.7708 344° North 367 422 13,800 1,742 Climbing Los Angeles Center
Thu 07:22:10 PM 34.6833 -118.8181 342° North 367 422 15,700 1,742 Climbing Los Angeles Center
Thu 07:23:12 PM 34.7803 -118.8536 343° North 365 420 17,400 1,645 Climbing Los Angeles Center
Thu 07:24:14 PM 34.8669 -118.9136 330° Northwest 362 417 19,100 1,584 Climbing Los Angeles Center
Thu 07:25:17 PM 34.9508 -119.0019 319° Northwest 360 414 20,700 1,306 Climbing Los Angeles Center
Thu 07:26:18 PM 35.0100 -119.0683 317° Northwest 363 418 21,800 1,306 Climbing Los Angeles Center
Thu 07:27:21 PM 35.1008 -119.1675 318° Northwest 366 421 23,400 1,344 Climbing Los Angeles Center
Thu 07:28:23 PM 35.1761 -119.2506 318° Northwest 365 420 24,600 1,161 Climbing Los Angeles Center
Thu 07:29:25 PM 35.2519 -119.3347 318° Northwest 367 422 25,800 677 Climbing Los Angeles Center
Thu 07:30:27 PM 35.3294 -119.4206 318° Northwest 374 430 26,000 97 Climbing Los Angeles Center
Thu 07:31:29 PM 35.4297 -119.5339 317° Northwest 401 461 26,000  Level Los Angeles Center
Thu 07:32:31 PM 35.5172 -119.6306 318° Northwest 418 481 26,000  Level Los Angeles Center
Thu 07:32:50 PM 35.5314 -119.6483 314° West 421 484 26,000  Level Oakland Center
Thu 07:33:52 PM 35.6400 -119.7714 317° Northwest 441 507 26,000  Level Oakland Center
Thu 07:34:37 PM 35.6997 -119.8381 318° Northwest 450 518 26,000  Level Los Angeles Center
Thu 07:34:53 PM 35.7347 -119.8769 318° Northwest 459 528 26,000  Level Oakland Center
Thu 07:35:55 PM 35.8289 -119.9853 317° Northwest 466 536 26,000  Level Oakland Center
Thu 07:36:56 PM 35.9253 -120.0928 318° Northwest 470 541 26,000  Level Oakland Center
Thu 07:37:58 PM 36.0203 -120.2025 317° Northwest 471 542 26,000  Level Oakland Center
Thu 07:38:59 PM 36.1161 -120.3125 317° Northwest 472 543 26,000  Level Oakland Center
Thu 07:40:01 PM 36.2314 -120.4447 317° Northwest 472 543 26,000  Level Oakland Center
Thu 07:41:02 PM 36.3269 -120.5558 317° Northwest 472 543 26,000  Level Oakland Center
Thu 07:42:04 PM 36.4225 -120.6667 317° Northwest 472 543 26,000  Level Oakland Center
Thu 07:43:05 PM 36.5169 -120.7767 317° Northwest 469 540 26,000  Level Oakland Center
Thu 07:44:07 PM 36.6117 -120.8861 317° Northwest 464 534 26,000  Level Oakland Center
Thu 07:45:08 PM 36.7050 -120.9939 317° Northwest 458 527 26,000  Level Oakland Center
Thu 07:46:10 PM 36.7981 -121.1008 317° Northwest 456 525 26,000 -537 Level Oakland Center
Thu 07:47:11 PM 36.9033 -121.2319 315° West 460 529 24,900 -1,317 Descending Oakland Center
Thu 07:48:13 PM 36.9978 -121.3433 317° Northwest 466 536 23,300 -1,561 Descending Oakland Center
Thu 07:49:14 PM 37.0944 -121.4581 317° Northwest 444 511 21,700 -1,574 Descending Oakland Center
Thu 07:50:15 PM 37.1819 -121.5628 316° Northwest 435 501 20,100 -829 Descending Oakland Center
Thu 07:51:17 PM 37.2669 -121.6656 316° Northwest 424 488 20,000 -49 Descending Oakland Center
Thu 07:52:18 PM 37.3561 -121.7731 316° Northwest 440 506 20,000  Level Oakland Center
Thu 07:52:41 PM 37.4000 -121.8167 322° Northwest 443 510 20,000 -1,357 Level Northern Cal TRACON
Thu 07:53:42 PM 37.4833 -121.9333 312° West 431 496 18,100 -1,950 Descending Northern Cal TRACON
Thu 07:54:41 PM 37.5667 -122.0333 316° Northwest 414 476 16,100 -1,963 Descending Northern Cal TRACON
Thu 07:56:24 PM 37.7017 -122.1933 317° Northwest 405 466 12,800 -1,500 Descending Oakland Center
Thu 07:57:25 PM 37.7778 -122.2914 314° West 395 455 12,000 -976 Descending Oakland Center
Thu 07:58:27 PM 37.8528 -122.3869 315° West 388 447 10,800 -976 Descending Oakland Center
Thu 07:59:28 PM 37.9233 -122.4758 315° West 371 427 10,000 -439 Descending Oakland Center
Thu 08:00:30 PM 38.0094 -122.5756 318° Northwest 364 419 9,900 -878 Descending Oakland Center
Thu 08:01:31 PM 38.0900 -122.6147 339° North 325 374 8,200 -1,918 Descending Oakland Center
Thu 08:02:32 PM 38.1650 -122.6500 340° North 297 342 6,000 -1,805 Descending Oakland Center
Thu 08:03:34 PM 38.2358 -122.6706 347° North 269 310 4,500 -732 Descending Oakland Center
Thu 08:04:35 PM 38.3058 -122.6836 352° North 260 299 4,500 -197 Level Oakland Center
Thu 08:05:36 PM 38.3692 -122.7058 345° North 247 284 4,100 -878 Descending Oakland Center
Thu 08:06:38 PM 38.4211 -122.7322 338° Northwest 218 251 2,700 -1,171 Descending Oakland Center
Thu 08:07:39 PM 38.4778 -122.7603 339° North 215 247 1,700 -488 Descending Oakland Center
Thu 08:08:41 PM 38.5339 -122.7878 339° North 193 222 1,700 -439 Level Oakland Center
Thu 08:09:42 PM 38.5475 -122.8236 296° West 167 192 800 -787 Descending Oakland Center
Thu 08:10:43 PM 38.5147 -122.8133 166° South 141 162 100 -689 Descending Oakland Center

Login

Don't have an account? Register now (free) for customized features, flight alerts, and more!